PWSweather.com
Personal Weather Stations
Station Observations
CAMPIGIANO
Campi Bisenzio, FirenzeIT

Campi BisenzioFirenzeIT

Lat: 43.8175012, Lon: 11.1391085

Elevation: 106

Station Type: LaCrosse WS2350

Latest ConditionsUpdated 5:00:01 AM GMT+01:01 Monday, Apr 27, 2015
Currently Today's Max Today's Min Today's Average
Temperature 58.3°F14.6°C 60.1°F15.6°C 58.3°F14.6°C 59.2°F15.1°C
Dew Point 54.7°F12.6°C 56.6°F13.7°C 54.5°F12.5°C 55.5°F13.1°C
Winds 2.3 mph N3.7 kmh N 2.3 mph N3.7 kmh N - 0.1 mph 0.2 kmh
Wind Gusts 2.3 mph3.7 kmh 2.3 mph3.7 kmh - -
Humidity 88% 89% 86% 87%
Pressure 29.72 in1006.4 mb 29.80 in1009.1 mb 29.72 in1006.4 mb -
Precipitation - 0.10 in2.5 mm - -
Hour Temp Dew Point Humidity Winds Wind Gusts Pressure Precip Precip Rate Daily Precip Total
05:00 AM 58.3°F14.6°C 54.7°F12.6°C 88% 2.3 mph N3.7 kmh N 2.3 mph3.7 kmh 29.72 in1006.4 mb - 0.02 in0.5 mm 0.10 in2.5 mm
04:45 AM 58.7°F14.8°C 54.9°F12.7°C 87% Calm Calm -- 29.72 in1006.4 mb - 0.02 in0.5 mm 0.10 in2.5 mm
04:30 AM 58.8°F14.9°C 55.0°F12.8°C 87% Calm Calm -- 29.73 in1006.8 mb - 0.04 in1.0 mm 0.08 in2.0 mm
04:15 AM 59.0°F15.0°C 55.1°F12.8°C 87% Calm Calm -- 29.73 in1006.8 mb - 0.04 in1.0 mm 0.04 in1.0 mm
04:00 AM 59.2°F15.1°C 55.3°F12.9°C 87% Calm Calm -- 29.73 in1006.8 mb - 0.00 in0.0 mm 0.00 in0.0 mm
03:45 AM 59.0°F15.0°C 55.1°F12.8°C 87% Calm Calm -- 29.74 in1007.1 mb - 0.00 in0.0 mm 0.00 in0.0 mm
03:30 AM 59.2°F15.1°C 55.3°F12.9°C 87% Calm Calm -- 29.74 in1007.1 mb - 0.00 in0.0 mm 0.00 in0.0 mm
03:15 AM 59.2°F15.1°C 55.3°F12.9°C 87% Calm Calm -- 29.74 in1007.1 mb - 0.00 in0.0 mm 0.00 in0.0 mm
03:00 AM 59.0°F15.0°C 55.1°F12.8°C 87% Calm Calm 1.2 mph1.9 kmh 29.75 in1007.5 mb - 0.00 in0.0 mm 0.00 in0.0 mm
02:45 AM 58.6°F14.8°C 54.5°F12.5°C 86% Calm Calm -- 29.76 in1007.8 mb - 0.00 in0.0 mm 0.00 in0.0 mm
02:30 AM 58.3°F14.6°C 54.5°F12.5°C 87% Calm Calm -- 29.76 in1007.8 mb - 0.00 in0.0 mm 0.00 in0.0 mm
02:15 AM 58.8°F14.9°C 54.9°F12.7°C 87% Calm Calm -- 29.76 in1007.8 mb - 0.00 in0.0 mm 0.00 in0.0 mm
02:00 AM 58.8°F14.9°C 55.0°F12.8°C 87% Calm Calm -- 29.76 in1007.8 mb - 0.00 in0.0 mm 0.00 in0.0 mm
01:45 AM 59.0°F15.0°C 55.4°F13.0°C 88% Calm Calm -- 29.76 in1007.8 mb - 0.00 in0.0 mm 0.00 in0.0 mm
01:30 AM 59.6°F15.3°C 56.4°F13.6°C 89% Calm Calm -- 29.77 in1008.1 mb - 0.00 in0.0 mm 0.00 in0.0 mm
01:15 AM 59.9°F15.5°C 56.6°F13.7°C 89% Calm Calm -- 29.78 in1008.5 mb - 0.00 in0.0 mm 0.00 in0.0 mm
01:00 AM 60.1°F15.6°C 56.5°F13.6°C 88% Calm Calm -- 29.79 in1008.8 mb - 0.00 in0.0 mm 0.00 in0.0 mm
12:45 AM 60.1°F15.6°C 56.5°F13.6°C 88% Calm Calm -- 29.79 in1008.8 mb - 0.00 in0.0 mm 0.00 in0.0 mm
12:30 AM 60.1°F15.6°C 56.5°F13.6°C 88% Calm Calm -- 29.79 in1008.8 mb - 0.00 in0.0 mm 0.00 in0.0 mm
12:15 AM 59.9°F15.5°C 56.3°F13.5°C 88% Calm Calm -- 29.80 in1009.1 mb - 0.00 in0.0 mm 0.00 in0.0 mm
12:00 AM 59.9°F15.5°C 56.3°F13.5°C 88% Calm Calm -- 29.80 in1009.1 mb - 0.00 in0.0 mm 0.00 in0.0 mm